Capitol Logistics 901

Operating for DHL



EDDK
Cologne Bonn Airport
Cologne, DE
EGNX
East Midlands Airport
Derby, GB

Activity Log

Date Flight Route Aircraft Duration
05/16/2022 CPX901 NVO2B NVO Y868 SOGRI L608 DENUT L610 HEMEL T420 WELIN DCT A31F 1h 18m
04/18/2022 CPX901 NVO2B NVO Y868 MAPAD/N0447F360 Y868 SOGRI L608 DENUT L610 HEMEL T420 WELIN A30F 1h 13m
04/06/2022 CPX901 NVO2B NVO Y868 MAPAD/N0447F360 Y868 SOGRI L608 DENUT L610 HEMEL T420 WELIN A30F 1h 24m
03/07/2022 CPX901 NVO2B NVO Y868 MAPAD/N0447F360 Y868 SOGRI L608 DENUT L610 HEMEL T420 WELIN A30F 1h 12m
02/02/2022 CPX901 NVO Y868 MAPAD/N0447F360 Y868 SOGRI L608 DENUT L610 HEMEL B738 1h 21m
01/13/2022 CPX918 NVO2B NVO Y868 MAPAD/N0447F360 Y868 SOGRI L608 DENUT L610 HEMEL T420 WELIN B738 1h 13m
01/09/2022 CPX918 NVO2B NVO Y868 MAPAD/N0447F360 Y868 SOGRI L608 DENUT L610 HEMEL T420 WELIN A30F 1h 10m
01/05/2022 CPX901 NVO2B NVO Y868 MAPAD/N0447F360 Y868 SOGRI L608 DENUT L610 HEMEL T420 WELIN B738 1h 49m
12/31/2021 CPX901 NVO2B NVO Y868 MAPAD/N0447F360 Y868 SOGRI L608 DENUT L610 HEMEL T420 WELIN A30F 1h 31m
10/16/2021 CPX918 NVO1R NVO Y868 SOGRI L608 DENUT L610 HEMEL T420 WELIN A30F 1h 19m
10/01/2021 CPX918 NVO1Q NVO Y868 MAPAD/N0447F360 Y868 SOGRI L608 DENUT L610 HEMEL T420 WELIN A31F 1h 15m
09/14/2021 CPX918 NVO2B NVO Y868 MAPAD/N0447F360 Y868 SOGRI L608 DENUT L610 HEMEL T420 WELIN A31F 1h 08m
09/12/2021 CPX947 NVO Y868 MAPAD/N0447F360 Y868 SOGRI L608 DENUT L610 HEMEL T420 WELIN A31F 1h 14m
09/09/2021 CPX947 NVO Y868 SOGRI L608 DENUT L610 HEMEL T420 WELIN A31F 1h 17m
09/07/2021 CPX947 NVO2F NVO Y868 SOGRI L608 DENUT L610 HEMEL HEME1E A30F 1h 14m
09/04/2021 CPX947 NVO Y868 SOGRI L608 DENUT L610 HEMEL T420 WELIN A31F 1h 14m
09/01/2021 CPX947 NVO Y868 SOGRI L608 DENUT L610 HEMEL T420 WELIN A31F 1h 26m

Route Details

Aircraft Information
Group: European Fleet
Types: A30F,A31F,B738
Route Data
Demand: H
Distance: 336nm
Duration: 1h 05m
Recm'd Route: NVO2B NVO Y868 MAPAD/N0447F360 Y868 SOGRI L608 DENUT L610 HEMEL T420 WELIN
Origin Wx: EDDK 242020Z AUTO 15005KT 9999 FEW040 11/09 Q1012 RESHRA NOSIG
Dest. Wx: EGNX 242020Z 23006KT 9999 FEW048 13/06 Q1009
Notes:

Financial History
Total Freight: 1,197,741lbs
Average Load: 70,455lbs/flt
Fuel Used: 222,914lbs
Avg. Fuel Used: 13,113lbs/flt
Fuel Expense: $102,605
Avg. Fuel Expense: $6,036
Avg. Fuel Cost: $0.46/lbs
Total Gross Income: $2,435,629
Pilot Pay: $3,703
Total Expenses: $304,022
Total Revenue: $2,124,602
Average Revenue: $143,272.28